Terminal Aerodrome Forecast
Issued by NWS

Home | Current Version | Previous Version | Text Only | Print | Product List | Glossary On
Versions: 1 2 3 4 5 6 7 8 9 10 11 12 13 14 15 16 17 18 19 20 21 22 23 24 25 26 27 28 29 30 31 32 33 34 35 36 37 38
000
FTUS45 KGJT 290607 AAA
TAFASE
TAF AMD
KASE 290607Z 2906/3006 13010KT P6SM VCSH FEW040 BKN090
      WS020/27020KT
     FM290700 21005KT P6SM SCT080
     FM291500 VRB03KT P6SM FEW250
     FM291800 34008KT P6SM SCT100
     FM300300 21005KT P6SM FEW100 SCT250=

USA.gov is the U.S. government's official web portal to all federal, state and local government web resources and services.